createdAt,value
2019-05-02T00:00:02.248Z,78.63
2019-05-02T00:01:02.220Z,77.49
2019-05-02T00:02:02.131Z,76.16
2019-05-02T00:03:04.486Z,77.49
2019-05-02T00:04:02.064Z,76.40
2019-05-02T00:05:01.974Z,76.03
2019-05-02T00:06:02.886Z,74.92
2019-05-02T00:07:01.910Z,75.26
2019-05-02T00:08:01.833Z,75.64
2019-05-02T00:09:03.943Z,77.17
2019-05-02T00:10:01.703Z,78.25
2019-05-02T00:11:01.649Z,78.72
2019-05-02T00:12:01.634Z,77.77
2019-05-02T00:13:01.543Z,76.73
2019-05-02T00:14:01.490Z,76.40
2019-05-02T00:15:02.432Z,78.30
2019-05-02T00:16:01.386Z,77.45
2019-05-02T00:17:01.329Z,76.88
2019-05-02T00:18:01.574Z,75.07
2019-05-02T00:19:01.220Z,75.07
2019-05-02T00:20:01.196Z,75.84
2019-05-02T00:21:02.890Z,76.31
2019-05-02T00:22:01.064Z,75.45
2019-05-02T00:23:01.005Z,76.50
2019-05-02T00:24:03.013Z,75.93
2019-05-02T00:25:00.931Z,75.26
2019-05-02T00:26:00.845Z,74.98
2019-05-02T00:27:01.346Z,75.36
2019-05-02T00:28:00.767Z,77.17
2019-05-02T00:29:00.682Z,76.59
2019-05-02T00:30:00.630Z,77.26
2019-05-02T00:31:00.575Z,76.78
2019-05-02T00:32:00.524Z,78.02
2019-05-02T00:33:00.500Z,78.30
2019-05-02T00:34:00.415Z,78.40
2019-05-02T00:35:00.363Z,78.40
2019-05-02T00:36:00.305Z,80.40
2019-05-02T00:37:00.284Z,79.11
2019-05-02T00:38:02.437Z,79.73
2019-05-02T00:39:00.145Z,81.16
2019-05-02T00:40:00.091Z,82.77
2019-05-02T00:41:02.123Z,84.20
2019-05-02T00:42:12.036Z,84.95
2019-05-02T00:42:59.970Z,83.15
2019-05-02T00:43:59.875Z,84.01
2019-05-02T00:44:59.824Z,83.15
2019-05-02T00:46:00.904Z,83.34
2019-05-02T00:46:59.716Z,82.87
2019-05-02T00:47:59.696Z,83.25
2019-05-02T00:49:01.814Z,83.25
2019-05-02T00:49:59.584Z,83.06
2019-05-02T00:50:59.500Z,82.96
2019-05-02T00:52:01.473Z,84.01
2019-05-02T00:52:59.394Z,85.24
2019-05-02T00:53:59.374Z,85.05
2019-05-02T00:54:59.878Z,86.47
2019-05-02T00:55:59.262Z,85.24
2019-05-02T00:56:59.178Z,81.25
2019-05-02T00:57:59.123Z,79.63
2019-05-02T00:59:02.249Z,77.92
2019-05-02T00:59:59.046Z,77.83
2019-05-02T01:00:58.962Z,78.59
2019-05-02T01:01:59.956Z,77.45
2019-05-02T01:02:58.853Z,74.88
2019-05-02T01:03:58.797Z,72.41
2019-05-02T01:04:59.348Z,73.36
2019-05-02T01:05:58.690Z,72.79
2019-05-02T01:06:58.637Z,72.79
2019-05-02T01:08:01.050Z,72.41
2019-05-02T01:08:58.534Z,71.66
2019-05-02T01:09:58.507Z,73.23
2019-05-02T01:10:58.423Z,73.27
2019-05-02T01:11:58.370Z,71.66
2019-05-02T01:12:58.315Z,71.37
2019-05-02T01:13:58.291Z,71.18
2019-05-02T01:14:58.210Z,70.29
2019-05-02T01:15:58.188Z,69.53
2019-05-02T01:16:58.099Z,68.77
2019-05-02T01:18:01.162Z,68.77
2019-05-02T01:18:57.995Z,68.01
2019-05-02T01:19:57.937Z,66.49
2019-05-02T01:21:02.343Z,66.77
2019-05-02T01:21:57.827Z,65.92
2019-05-02T01:22:57.774Z,67.34
2019-05-02T01:23:59.034Z,68.58
2019-05-02T01:24:57.669Z,69.62
2019-05-02T01:25:57.657Z,69.43
2019-05-02T01:26:59.902Z,68.01
2019-05-02T01:27:57.502Z,67.72
2019-05-02T01:28:57.461Z,67.44
2019-05-02T01:30:01.415Z,67.53
2019-05-02T01:30:57.374Z,68.29
2019-05-02T01:31:57.288Z,69.53
2019-05-02T01:33:01.505Z,69.15
2019-05-02T01:33:57.213Z,69.81
2019-05-02T01:34:57.151Z,71.33
2019-05-02T01:35:57.067Z,71.14
2019-05-02T01:36:57.021Z,70.10
2019-05-02T01:37:56.961Z,69.43
2019-05-02T01:38:56.938Z,69.15
2019-05-02T01:39:56.851Z,69.81
2019-05-02T01:40:56.799Z,70.57
2019-05-02T01:41:59.938Z,70.38
2019-05-02T01:42:56.731Z,68.96
2019-05-02T01:44:00.043Z,67.53
2019-05-02T01:44:56.584Z,68.96
2019-05-02T01:45:56.523Z,70.29
2019-05-02T01:46:58.884Z,70.57
2019-05-02T01:47:56.455Z,70.57
2019-05-02T01:48:56.364Z,68.48
2019-05-02T01:49:57.259Z,67.72
2019-05-02T01:50:56.252Z,67.25
2019-05-02T01:51:56.199Z,66.96
2019-05-02T01:52:58.664Z,67.82
2019-05-02T01:53:56.096Z,68.67
2019-05-02T01:54:56.036Z,67.72
2019-05-02T01:55:57.763Z,67.63
2019-05-02T01:56:55.964Z,68.10
2019-05-02T01:57:55.875Z,67.72
2019-05-02T01:58:57.734Z,68.19
2019-05-02T01:59:55.766Z,68.10
2019-05-02T02:00:55.720Z,68.13
2019-05-02T02:01:58.019Z,69.15
2019-05-02T02:02:55.602Z,69.27
2019-05-02T02:03:55.580Z,70.51
2019-05-02T02:04:56.948Z,72.41
2019-05-02T02:05:55.439Z,75.07
2019-05-02T02:06:55.388Z,79.31
2019-05-02T02:07:55.939Z,77.79
2019-05-02T02:08:55.317Z,75.32
2019-05-02T02:09:55.220Z,73.71
2019-05-02T02:10:56.067Z,72.00
2019-05-02T02:11:55.114Z,72.47
2019-05-02T02:13:03.695Z,70.86
2019-05-02T02:13:55.037Z,69.34
2019-05-02T02:14:55.556Z,68.77
2019-05-02T02:15:54.937Z,68.86
2019-05-02T02:16:54.843Z,69.81
2019-05-02T02:17:54.786Z,70.57
2019-05-02T02:18:59.123Z,70.10
2019-05-02T02:19:54.680Z,70.48
2019-05-02T02:20:54.656Z,71.43
2019-05-02T02:21:57.600Z,72.28
2019-05-02T02:22:54.550Z,73.33
2019-05-02T02:23:54.468Z,74.37
2019-05-02T02:24:55.944Z,75.51
2019-05-02T02:25:54.352Z,76.46
2019-05-02T02:26:54.298Z,75.51
2019-05-02T02:27:54.930Z,75.51
2019-05-02T02:28:54.236Z,75.89
2019-05-02T02:29:54.136Z,74.08
2019-05-02T02:30:57.923Z,73.52
2019-05-02T02:31:54.091Z,72.85
2019-05-02T02:33:00.866Z,73.80
2019-05-02T02:33:53.921Z,73.23
2019-05-02T02:34:53.865Z,73.99
2019-05-02T02:35:53.811Z,71.52
2019-05-02T02:36:53.790Z,70.67
2019-05-02T02:37:55.737Z,69.43
2019-05-02T02:38:53.645Z,70.48
2019-05-02T02:39:54.025Z,68.19
2019-05-02T02:40:53.540Z,66.49
2019-05-02T02:41:54.231Z,66.67
2019-05-02T02:42:53.429Z,66.77
2019-05-02T02:43:54.654Z,67.82
2019-05-02T02:44:53.320Z,66.77
2019-05-02T02:45:57.964Z,67.72
2019-05-02T02:46:53.248Z,67.63
2019-05-02T02:47:59.815Z,67.06
2019-05-02T02:48:53.106Z,67.82
2019-05-02T02:49:56.117Z,68.29
2019-05-02T02:50:52.991Z,69.05
2019-05-02T02:51:57.806Z,69.24
2019-05-02T02:52:52.917Z,67.88
2019-05-02T02:54:03.227Z,67.69
2019-05-02T02:54:52.787Z,67.79
2019-05-02T02:56:01.143Z,67.12
2019-05-02T02:56:52.666Z,66.93
2019-05-02T02:57:52.675Z,67.12
2019-05-02T02:58:52.559Z,67.12
2019-05-02T02:59:52.502Z,66.55
2019-05-02T03:00:52.475Z,65.98
2019-05-02T03:01:52.394Z,66.30
2019-05-02T03:02:52.379Z,65.88
2019-05-02T03:03:52.284Z,64.37
2019-05-02T03:04:52.233Z,64.11
2019-05-02T03:05:52.174Z,64.94
2019-05-02T03:06:52.153Z,65.63
2019-05-02T03:07:52.070Z,66.58
2019-05-02T03:08:52.011Z,67.06
2019-05-02T03:09:51.955Z,68.01
2019-05-02T03:10:51.903Z,69.68
2019-05-02T03:11:56.169Z,71.58
2019-05-02T03:12:51.793Z,72.63
2019-05-02T03:13:53.500Z,72.44
2019-05-02T03:14:51.688Z,73.90
2019-05-02T03:15:51.632Z,73.42
2019-05-02T03:16:51.605Z,74.33
2019-05-02T03:17:51.517Z,73.96
2019-05-02T03:18:51.464Z,73.90
2019-05-02T03:19:54.481Z,72.25
2019-05-02T03:20:51.354Z,72.63
2019-05-02T03:21:54.215Z,72.00
2019-05-02T03:22:51.248Z,71.48
2019-05-02T03:24:02.242Z,70.54
2019-05-02T03:24:51.170Z,72.28
2019-05-02T03:25:51.638Z,75.09
2019-05-02T03:26:55.414Z,76.90
2019-05-02T03:27:51.001Z,77.18
2019-05-02T03:28:57.141Z,77.28
2019-05-02T03:29:50.867Z,77.37
2019-05-02T03:30:50.808Z,76.52
2019-05-02T03:32:11.608Z,75.57
2019-05-02T03:33:06.727Z,76.04
2019-05-02T03:33:56.642Z,75.28
2019-05-02T03:34:53.589Z,77.28
2019-05-02T03:35:50.555Z,78.42
2019-05-02T03:36:50.482Z,78.70
2019-05-02T03:37:51.510Z,78.32
2019-05-02T03:38:50.371Z,78.70
2019-05-02T03:39:57.540Z,78.32
2019-05-02T03:40:50.261Z,77.47
2019-05-02T03:41:55.681Z,77.18
2019-05-02T03:42:50.192Z,78.32
2019-05-02T03:43:50.113Z,80.41
2019-05-02T03:44:56.102Z,80.69
2019-05-02T03:45:49.988Z,78.61
2019-05-02T03:46:54.324Z,78.32
2019-05-02T03:47:49.915Z,78.51
2019-05-02T03:48:49.855Z,78.42
2019-05-02T03:49:52.383Z,76.90
2019-05-02T03:50:49.714Z,75.76
2019-05-02T03:51:56.040Z,75.95
2019-05-02T03:52:49.610Z,76.14
2019-05-02T03:53:49.591Z,75.67
2019-05-02T03:54:52.272Z,75.19
2019-05-02T03:55:49.438Z,74.62
2019-05-02T03:56:51.316Z,73.96
2019-05-02T03:57:49.328Z,73.38
2019-05-02T03:58:56.467Z,71.96
2019-05-02T03:59:49.224Z,74.33
2019-05-02T04:01:00.319Z,76.90
2019-05-02T04:01:49.112Z,78.32
2019-05-02T04:02:59.571Z,76.04
2019-05-02T04:03:49.043Z,75.76
2019-05-02T04:04:54.284Z,72.81
2019-05-02T04:05:48.890Z,71.77
2019-05-02T04:06:54.958Z,72.72
2019-05-02T04:07:48.780Z,73.38
2019-05-02T04:08:58.763Z,72.81
2019-05-02T04:09:48.681Z,72.25
2019-05-02T04:10:52.650Z,72.06
2019-05-02T04:11:48.560Z,70.54
2019-05-02T04:12:53.070Z,71.30
2019-05-02T04:13:48.486Z,71.20
2019-05-02T04:14:48.418Z,70.44
2019-05-02T04:15:48.341Z,69.87
2019-05-02T04:16:54.623Z,68.92
2019-05-02T04:17:48.238Z,66.83
2019-05-02T04:18:54.722Z,66.64
2019-05-02T04:19:48.152Z,65.12
2019-05-02T04:20:49.642Z,64.46
2019-05-02T04:21:52.545Z,64.56
2019-05-02T04:22:49.007Z,65.79
2019-05-02T04:23:47.903Z,65.79
2019-05-02T04:24:54.305Z,65.79
2019-05-02T04:25:47.793Z,65.98
2019-05-02T04:26:54.051Z,66.55
2019-05-02T04:27:47.683Z,66.36
2019-05-02T04:28:51.623Z,65.69
2019-05-02T04:29:47.621Z,65.50
2019-05-02T04:30:51.150Z,67.50
2019-05-02T04:31:47.470Z,67.02
2019-05-02T04:32:49.774Z,66.46
2019-05-02T04:33:47.353Z,65.22
2019-05-02T04:34:48.953Z,65.31
2019-05-02T04:35:47.284Z,63.89
2019-05-02T04:36:53.461Z,63.04
2019-05-02T04:37:47.135Z,62.46
2019-05-02T04:38:51.724Z,62.66
2019-05-02T04:39:49.102Z,63.32
2019-05-02T04:40:49.593Z,63.60
2019-05-02T04:41:48.522Z,62.94
2019-05-02T04:42:53.511Z,63.42
2019-05-02T04:43:54.647Z,62.66
2019-05-02T04:45:08.813Z,63.13
2019-05-02T04:45:55.745Z,63.23
2019-05-02T04:46:48.823Z,63.13
2019-05-02T04:47:57.505Z,63.13
2019-05-02T04:48:49.728Z,63.32
2019-05-02T04:49:51.350Z,64.65
2019-05-02T04:50:48.309Z,65.50
2019-05-02T04:51:50.710Z,65.79
2019-05-02T04:52:52.206Z,64.78
2019-05-02T04:53:49.551Z,65.69
2019-05-02T04:54:48.598Z,66.77
2019-05-02T04:55:52.037Z,66.67
2019-05-02T04:56:49.505Z,65.82
2019-05-02T04:57:50.609Z,65.35
2019-05-02T04:58:48.974Z,67.53
2019-05-02T04:59:50.059Z,70.29
2019-05-02T05:00:53.633Z,72.38
2019-05-02T05:01:52.785Z,74.56
2019-05-02T05:02:48.430Z,74.27
2019-05-02T05:03:49.222Z,74.85
2019-05-02T05:04:48.699Z,74.75
2019-05-02T05:05:47.765Z,74.85
2019-05-02T05:06:54.891Z,77.22
2019-05-02T05:07:46.560Z,75.13
2019-05-02T05:08:48.067Z,71.33
2019-05-02T05:09:50.031Z,68.19
2019-05-02T05:10:45.321Z,67.72
2019-05-02T05:11:45.310Z,66.67
2019-05-02T05:12:45.216Z,65.63
2019-05-02T05:13:45.155Z,66.49
2019-05-02T05:14:45.133Z,66.77
2019-05-02T05:15:49.479Z,66.67
2019-05-02T05:16:50.274Z,68.39
2019-05-02T05:17:44.940Z,70.48
2019-05-02T05:18:49.371Z,74.94
2019-05-02T05:19:44.828Z,77.31
2019-05-02T05:20:46.001Z,76.08
2019-05-02T05:21:44.762Z,75.51
2019-05-02T05:22:45.948Z,75.13
2019-05-02T05:23:44.609Z,74.37
2019-05-02T05:24:44.556Z,73.33
2019-05-02T05:25:44.504Z,73.42
2019-05-02T05:26:44.479Z,71.43
2019-05-02T05:27:44.391Z,68.96
2019-05-02T05:28:44.571Z,69.15
2019-05-02T05:29:45.990Z,69.18
2019-05-02T05:30:45.533Z,69.46
2019-05-02T05:31:44.211Z,70.61
2019-05-02T05:32:44.155Z,71.46
2019-05-02T05:33:44.062Z,72.60
2019-05-02T05:34:44.029Z,73.36
2019-05-02T05:35:50.978Z,73.36
2019-05-02T05:36:43.910Z,72.70
2019-05-02T05:37:51.485Z,74.03
2019-05-02T05:38:43.805Z,75.93
2019-05-02T05:39:48.761Z,76.31
2019-05-02T05:40:43.681Z,76.69
2019-05-02T05:41:50.873Z,74.51
2019-05-02T05:42:43.602Z,75.55
2019-05-02T05:43:44.898Z,75.64
2019-05-02T05:44:43.501Z,75.36
2019-05-02T05:45:53.848Z,75.45
2019-05-02T05:46:43.357Z,75.68
2019-05-02T05:47:43.310Z,74.63
2019-05-02T05:48:43.247Z,74.63
2019-05-02T05:49:43.228Z,75.68
2019-05-02T05:50:43.145Z,76.63
2019-05-02T05:51:43.089Z,77.77
2019-05-02T05:52:43.031Z,77.20
2019-05-02T05:53:42.980Z,77.30
2019-05-02T05:54:42.959Z,77.58
2019-05-02T05:55:42.874Z,77.58
2019-05-02T05:56:43.299Z,77.68
2019-05-02T05:57:42.796Z,77.43
2019-05-02T05:58:50.509Z,77.58
2019-05-02T05:59:42.657Z,77.53
2019-05-02T06:00:45.982Z,77.91
2019-05-02T06:01:42.550Z,78.00
2019-05-02T06:02:53.034Z,77.34
2019-05-02T06:03:44.960Z,76.20
2019-05-02T06:04:42.386Z,75.53
2019-05-02T06:05:42.371Z,76.67
2019-05-02T06:06:42.278Z,77.81
2019-05-02T06:07:44.908Z,77.56
2019-05-02T06:08:42.171Z,77.76
2019-05-02T06:09:42.117Z,78.61
2019-05-02T06:10:43.911Z,79.66
2019-05-02T06:11:42.009Z,79.85
2019-05-02T06:12:41.987Z,79.85
2019-05-02T06:13:42.871Z,80.71
2019-05-02T06:14:41.849Z,81.09
2019-05-02T06:15:41.836Z,80.61
2019-05-02T06:16:46.581Z,81.85
2019-05-02T06:17:41.688Z,81.95
2019-05-02T06:18:43.425Z,82.32
2019-05-02T06:19:41.588Z,82.65
2019-05-02T06:20:41.528Z,83.80
2019-05-02T06:21:45.234Z,83.51
2019-05-02T06:22:41.458Z,84.08
2019-05-02T06:23:41.677Z,84.46
2019-05-02T06:24:41.318Z,85.22
2019-05-02T06:25:42.724Z,85.32
2019-05-02T06:26:44.661Z,85.80
2019-05-02T06:27:41.188Z,86.65
2019-05-02T06:28:42.142Z,87.32
2019-05-02T06:29:41.086Z,88.08
2019-05-02T06:30:40.998Z,88.37
2019-05-02T06:31:43.050Z,89.17
2019-05-02T06:32:40.895Z,88.98
2019-05-02T06:33:40.843Z,89.36
2019-05-02T06:34:46.385Z,89.75
2019-05-02T06:35:40.737Z,89.94
2019-05-02T06:36:40.681Z,90.50
2019-05-02T06:37:40.940Z,90.60
2019-05-02T06:38:40.611Z,92.89
2019-05-02T06:39:40.527Z,94.17
2019-05-02T06:40:44.810Z,95.03
2019-05-02T06:41:40.420Z,95.41
2019-05-02T06:42:40.396Z,95.03
2019-05-02T06:43:41.198Z,95.70
2019-05-02T06:44:40.264Z,95.41
2019-05-02T06:45:40.254Z,96.75
2019-05-02T06:46:40.157Z,98.27
2019-05-02T06:47:41.714Z,97.41
2019-05-02T06:48:40.054Z,97.41
2019-05-02T06:49:40.001Z,96.56
2019-05-02T06:50:40.577Z,97.32
2019-05-02T06:51:39.898Z,97.13
2019-05-02T06:52:39.846Z,97.94
2019-05-02T06:53:41.270Z,98.42
2019-05-02T06:54:39.740Z,98.80
2019-05-02T06:55:39.725Z,99.99
2019-05-02T06:56:43.158Z,99.99
2019-05-02T06:57:39.586Z,99.99
2019-05-02T06:58:41.920Z,99.99
2019-05-02T06:59:39.488Z,99.99
2019-05-02T07:00:55.688Z,99.99
2019-05-02T07:01:39.379Z,99.99
2019-05-02T07:02:39.329Z,99.99
2019-05-02T07:03:41.424Z,99.99
2019-05-02T07:04:39.225Z,99.99
2019-05-02T07:05:39.203Z,99.99
2019-05-02T07:06:55.940Z,99.99
2019-05-02T07:07:39.110Z,99.99
2019-05-02T07:08:39.100Z,99.99
2019-05-02T07:09:41.218Z,99.99
2019-05-02T07:10:44.751Z,99.99
2019-05-02T07:11:40.831Z,99.99
2019-05-02T07:12:38.816Z,99.99
2019-05-02T07:13:41.985Z,99.99
2019-05-02T07:14:38.714Z,99.99
2019-05-02T07:15:40.607Z,99.99
2019-05-02T07:16:39.062Z,99.99
2019-05-02T07:17:38.558Z,99.99
2019-05-02T07:18:42.018Z,99.99
2019-05-02T07:19:38.458Z,99.99
2019-05-02T07:20:40.582Z,99.99
2019-05-02T07:21:38.357Z,99.99
2019-05-02T07:22:39.209Z,99.99
2019-05-02T07:23:38.256Z,99.99
2019-05-02T07:24:38.204Z,99.99
2019-05-02T07:25:39.046Z,99.99
2019-05-02T07:26:38.101Z,99.99
2019-05-02T07:27:39.273Z,99.99
2019-05-02T07:28:40.434Z,99.99
2019-05-02T07:29:37.953Z,99.99
2019-05-02T07:30:37.902Z,99.99
2019-05-02T07:31:37.852Z,99.99
2019-05-02T07:32:37.801Z,99.99
2019-05-02T07:33:38.765Z,99.99
2019-05-02T07:34:37.703Z,99.99
2019-05-02T07:35:37.650Z,99.99
2019-05-02T07:36:38.380Z,99.99
2019-05-02T07:37:37.548Z,99.99
2019-05-02T07:38:37.533Z,99.99
2019-05-02T07:39:41.045Z,99.99
2019-05-02T07:40:37.400Z,99.99
2019-05-02T07:41:37.381Z,99.99
2019-05-02T07:42:41.840Z,99.99
2019-05-02T07:43:37.253Z,99.99
2019-05-02T07:44:37.199Z,99.99
2019-05-02T07:45:40.202Z,99.99
2019-05-02T07:46:37.101Z,99.99
2019-05-02T07:47:40.117Z,99.99
2019-05-02T07:48:37.042Z,99.99
2019-05-02T07:49:36.953Z,99.99
2019-05-02T07:50:41.186Z,99.99
2019-05-02T07:51:36.856Z,99.99
2019-05-02T07:52:36.806Z,99.99
2019-05-02T07:53:36.786Z,99.99
2019-05-02T07:54:36.704Z,99.99
2019-05-02T07:55:40.669Z,99.99
2019-05-02T07:56:36.607Z,99.99
2019-05-02T07:57:36.564Z,99.99
2019-05-02T07:58:38.014Z,99.99
2019-05-02T07:59:36.457Z,99.99
2019-05-02T08:00:37.165Z,99.99
2019-05-02T08:01:36.360Z,99.99
2019-05-02T08:02:36.316Z,99.99
2019-05-02T08:03:36.262Z,99.99
2019-05-02T08:04:36.215Z,99.99
2019-05-02T08:05:36.198Z,99.99
2019-05-02T08:06:40.068Z,99.99
2019-05-02T08:07:36.076Z,99.99
2019-05-02T08:08:36.424Z,99.99
2019-05-02T08:09:39.331Z,99.99
2019-05-02T08:10:35.958Z,99.99
2019-05-02T08:11:37.102Z,99.99
2019-05-02T08:12:35.827Z,99.99
2019-05-02T08:13:35.779Z,99.34
2019-05-02T08:14:36.442Z,97.33
2019-05-02T08:15:35.730Z,95.03
2019-05-02T08:16:35.702Z,96.22
2019-05-02T08:17:35.586Z,91.90
2019-05-02T08:18:35.545Z,89.30
2019-05-02T08:19:39.860Z,89.25
2019-05-02T08:20:35.490Z,88.10
2019-05-02T08:21:35.403Z,87.42
2019-05-02T08:22:35.357Z,86.46
2019-05-02T08:23:35.307Z,86.36
2019-05-02T08:24:37.839Z,86.51
2019-05-02T08:25:35.257Z,85.16
2019-05-02T08:26:35.170Z,84.77
2019-05-02T08:27:36.671Z,84.19
2019-05-02T08:28:35.081Z,82.70
2019-05-02T08:29:35.028Z,81.73
2019-05-02T08:30:35.324Z,79.81
2019-05-02T08:31:34.977Z,80.91
2019-05-02T08:32:34.896Z,81.39
2019-05-02T08:33:35.873Z,80.81
2019-05-02T08:34:34.810Z,80.04
2019-05-02T08:35:34.755Z,76.86
2019-05-02T08:36:34.758Z,75.55
2019-05-02T08:37:35.428Z,77.48
2019-05-02T08:38:34.618Z,75.88
2019-05-02T08:39:35.231Z,76.45
2019-05-02T08:40:34.542Z,73.75
2019-05-02T08:41:34.522Z,71.98
2019-05-02T08:42:34.439Z,73.72
2019-05-02T08:43:34.395Z,73.88
2019-05-02T08:44:34.349Z,73.97
2019-05-02T08:45:38.279Z,75.09
2019-05-02T08:46:34.289Z,74.74
2019-05-02T08:47:34.214Z,75.61
2019-05-02T08:48:36.410Z,73.94
2019-05-02T08:49:34.129Z,74.16
2019-05-02T08:50:34.133Z,71.47
2019-05-02T08:51:34.037Z,73.68
2019-05-02T08:52:36.851Z,75.67
2019-05-02T08:53:33.948Z,74.13
2019-05-02T08:54:34.142Z,70.86
2019-05-02T08:55:33.889Z,70.31
2019-05-02T08:56:35.006Z,70.50
2019-05-02T08:57:34.558Z,67.61
2019-05-02T08:58:33.771Z,67.87
2019-05-02T08:59:33.682Z,72.24
2019-05-02T09:00:37.465Z,71.37
2019-05-02T09:01:35.328Z,70.70
2019-05-02T09:02:41.170Z,68.38
2019-05-02T09:03:53.899Z,64.31
2019-05-02T09:04:33.462Z,64.66
2019-05-02T09:05:36.388Z,65.37
2019-05-02T09:06:33.373Z,68.51
2019-05-02T09:07:37.020Z,69.62
2019-05-02T09:08:33.324Z,71.12
2019-05-02T09:09:33.240Z,70.93
2019-05-02T09:10:37.145Z,70.64
2019-05-02T09:11:33.153Z,69.72
2019-05-02T09:12:36.929Z,70.20
2019-05-02T09:13:33.160Z,68.89
2019-05-02T09:14:33.021Z,69.05
2019-05-02T09:15:35.218Z,70.04
2019-05-02T09:16:32.931Z,70.33
2019-05-02T09:17:38.266Z,71.52
2019-05-02T09:18:38.606Z,70.56
2019-05-02T09:19:34.902Z,69.60
2019-05-02T09:20:32.876Z,68.15
2019-05-02T09:21:35.950Z,64.85
2019-05-02T09:22:32.830Z,65.27
2019-05-02T09:23:36.964Z,67.80
2019-05-02T09:24:32.750Z,70.29
2019-05-02T09:25:32.563Z,71.29
2019-05-02T09:26:38.371Z,72.29
2019-05-02T09:27:32.444Z,69.82
2019-05-02T09:28:32.406Z,67.99
2019-05-02T09:29:32.783Z,64.69
2019-05-02T09:30:32.730Z,64.85
2019-05-02T09:31:32.262Z,65.78
2019-05-02T09:32:32.335Z,65.88
2019-05-02T09:33:32.339Z,66.49
2019-05-02T09:34:32.134Z,67.54
2019-05-02T09:35:32.839Z,69.60
2019-05-02T09:36:32.346Z,66.65
2019-05-02T09:37:32.200Z,65.40
2019-05-02T09:38:32.856Z,64.34
2019-05-02T09:39:36.410Z,64.18
2019-05-02T09:40:32.025Z,63.18
2019-05-02T09:41:36.103Z,58.83
2019-05-02T09:42:32.477Z,61.91
2019-05-02T09:43:37.439Z,61.43
2019-05-02T09:44:33.212Z,62.10
2019-05-02T09:45:33.398Z,62.96
2019-05-02T09:46:32.503Z,64.09
2019-05-02T09:47:33.245Z,66.04
2019-05-02T09:48:31.914Z,66.00
2019-05-02T09:49:32.441Z,65.72
2019-05-02T09:50:34.259Z,61.78
2019-05-02T09:51:32.425Z,60.47
2019-05-02T09:52:34.053Z,63.25
2019-05-02T09:53:32.335Z,64.02
2019-05-02T09:54:32.230Z,66.16
2019-05-02T09:55:31.812Z,67.74
2019-05-02T09:56:32.523Z,67.58
2019-05-02T09:57:32.035Z,64.73
2019-05-02T09:58:32.079Z,62.06
2019-05-02T09:59:32.872Z,59.37
2019-05-02T10:00:32.228Z,57.73
2019-05-02T10:01:31.686Z,58.89
2019-05-02T10:02:32.498Z,55.13
2019-05-02T10:03:31.961Z,52.48
2019-05-02T10:04:32.513Z,54.99
2019-05-02T10:05:32.186Z,56.93
2019-05-02T10:06:32.128Z,56.58
2019-05-02T10:07:32.422Z,56.10
2019-05-02T10:08:32.132Z,57.64
2019-05-02T10:09:32.269Z,59.47
2019-05-02T10:10:32.358Z,57.54
2019-05-02T10:11:32.182Z,57.83
2019-05-02T10:12:32.097Z,59.20
2019-05-02T10:13:31.845Z,60.77
2019-05-02T10:14:30.394Z,57.79
2019-05-02T10:15:32.549Z,56.03
2019-05-02T10:16:31.970Z,56.32
2019-05-02T10:17:32.072Z,54.20
2019-05-02T10:18:32.721Z,52.83
2019-05-02T10:19:30.148Z,55.07
2019-05-02T10:20:34.103Z,56.90
2019-05-02T10:21:31.814Z,59.14
2019-05-02T10:22:33.797Z,57.72
2019-05-02T10:23:31.930Z,55.02
2019-05-02T10:24:32.082Z,55.29
2019-05-02T10:25:32.806Z,56.73
2019-05-02T10:26:29.840Z,55.55
2019-05-02T10:27:29.823Z,57.86
2019-05-02T10:28:31.601Z,59.04
2019-05-02T10:29:29.936Z,57.89
2019-05-02T10:30:32.805Z,59.07
2019-05-02T10:31:33.365Z,58.40
2019-05-02T10:32:29.612Z,54.25
2019-05-02T10:33:33.630Z,53.58
2019-05-02T10:34:29.531Z,55.02
2019-05-02T10:35:37.200Z,54.54
2019-05-02T10:36:29.408Z,57.34
2019-05-02T10:37:32.433Z,55.89
2019-05-02T10:38:29.350Z,54.96
2019-05-02T10:39:33.983Z,54.18
2019-05-02T10:40:29.230Z,52.93
2019-05-02T10:41:33.472Z,54.64
2019-05-02T10:42:29.143Z,54.83
2019-05-02T10:43:29.136Z,55.60
2019-05-02T10:44:32.698Z,56.47
2019-05-02T10:45:29.021Z,55.02
2019-05-02T10:46:35.298Z,54.16
2019-05-02T10:47:28.935Z,54.16
2019-05-02T10:48:29.265Z,53.61
2019-05-02T10:49:28.878Z,52.73
2019-05-02T10:50:28.800Z,52.28
2019-05-02T10:51:28.763Z,50.23
2019-05-02T10:52:29.934Z,54.60
2019-05-02T10:53:28.706Z,54.02
2019-05-02T10:54:33.852Z,51.68
2019-05-02T10:55:28.614Z,53.13
2019-05-02T10:56:28.549Z,52.33
2019-05-02T10:57:28.504Z,56.11
2019-05-02T10:58:34.141Z,56.52
2019-05-02T10:59:28.443Z,54.62
2019-05-02T11:00:28.378Z,53.56
2019-05-02T11:01:28.370Z,54.82
2019-05-02T11:02:28.292Z,54.55
2019-05-02T11:03:28.253Z,54.84
2019-05-02T11:04:29.409Z,52.62
2019-05-02T11:05:28.197Z,52.04
2019-05-02T11:06:28.124Z,51.75
2019-05-02T11:07:28.122Z,50.57
2019-05-02T11:08:28.043Z,51.75
2019-05-02T11:09:27.996Z,51.95
2019-05-02T11:10:27.956Z,51.65
2019-05-02T11:11:27.911Z,51.65
2019-05-02T11:12:40.703Z,52.04
2019-05-02T11:13:27.831Z,52.43
2019-05-02T11:14:27.787Z,51.73
2019-05-02T11:15:27.745Z,50.23
2019-05-02T11:16:27.760Z,51.99
2019-05-02T11:17:27.661Z,53.53
2019-05-02T11:18:40.407Z,51.68
2019-05-02T11:19:27.580Z,51.75
2019-05-02T11:20:27.539Z,53.41
2019-05-02T11:21:27.545Z,58.17
2019-05-02T11:22:27.451Z,53.53
2019-05-02T11:23:27.430Z,52.64
2019-05-02T11:24:27.369Z,52.57
2019-05-02T11:25:27.329Z,55.08
2019-05-02T11:26:27.317Z,57.42
2019-05-02T11:27:27.249Z,57.93
2019-05-02T11:28:27.204Z,55.26
2019-05-02T11:29:27.159Z,52.87
2019-05-02T11:30:27.120Z,51.71
2019-05-02T11:31:27.115Z,51.78
2019-05-02T11:32:27.072Z,53.61
2019-05-02T11:33:26.997Z,53.13
2019-05-02T11:34:26.958Z,52.09
2019-05-02T11:35:26.912Z,53.52
2019-05-02T11:36:27.534Z,52.26
2019-05-02T11:37:27.810Z,49.92
2019-05-02T11:38:39.582Z,51.56
2019-05-02T11:39:35.275Z,51.85
2019-05-02T11:40:26.709Z,48.83
2019-05-02T11:41:26.666Z,51.89
2019-05-02T11:42:27.315Z,51.87
2019-05-02T11:43:26.582Z,52.04
2019-05-02T11:44:26.583Z,54.25
2019-05-02T11:45:26.500Z,54.93
2019-05-02T11:46:26.459Z,55.92
2019-05-02T11:47:26.765Z,54.18
2019-05-02T11:48:26.379Z,54.96
2019-05-02T11:49:26.339Z,55.85
2019-05-02T11:50:26.714Z,54.47
2019-05-02T11:51:26.253Z,52.55
2019-05-02T11:52:27.362Z,52.06
2019-05-02T11:53:29.454Z,53.03
2019-05-02T11:54:27.731Z,52.95
2019-05-02T11:55:29.036Z,52.95
2019-05-02T11:56:26.043Z,54.50
2019-05-02T11:57:28.500Z,55.88
2019-05-02T11:58:25.959Z,54.91
2019-05-02T11:59:28.253Z,51.73
2019-05-02T12:00:25.913Z,53.17
2019-05-02T12:01:35.564Z,54.24
2019-05-02T12:02:25.839Z,52.21
2019-05-02T12:03:28.097Z,52.11
2019-05-02T12:04:25.713Z,51.92
2019-05-02T12:05:26.531Z,54.55
2019-05-02T12:06:25.627Z,54.75
2019-05-02T12:07:25.621Z,54.77
2019-05-02T12:08:25.546Z,55.93
2019-05-02T12:09:25.547Z,53.52
2019-05-02T12:10:28.033Z,54.00
2019-05-02T12:11:25.423Z,51.73
2019-05-02T12:12:27.172Z,51.73
2019-05-02T12:13:25.341Z,53.63
2019-05-02T12:14:27.377Z,52.11
2019-05-02T12:15:25.257Z,51.51
2019-05-02T12:16:25.248Z,53.34
2019-05-02T12:17:25.174Z,51.97
2019-05-02T12:18:25.138Z,52.64
2019-05-02T12:19:25.153Z,54.76
2019-05-02T12:20:28.579Z,56.11
2019-05-02T12:21:25.007Z,57.78
2019-05-02T12:22:24.969Z,57.39
2019-05-02T12:23:24.964Z,55.94
2019-05-02T12:24:24.887Z,57.68
2019-05-02T12:25:24.844Z,57.29
2019-05-02T12:26:24.807Z,54.79
2019-05-02T12:27:24.760Z,55.18
2019-05-02T12:28:24.740Z,57.20
2019-05-02T12:29:24.682Z,56.14
2019-05-02T12:30:24.634Z,56.43
2019-05-02T12:31:24.593Z,53.83
2019-05-02T12:32:24.554Z,53.73
2019-05-02T12:33:24.551Z,57.90
2019-05-02T12:34:24.469Z,53.85
2019-05-02T12:35:24.429Z,55.68
2019-05-02T12:36:24.397Z,55.98
2019-05-02T12:37:24.345Z,57.74
2019-05-02T12:38:24.336Z,54.94
2019-05-02T12:39:24.297Z,54.84
2019-05-02T12:40:24.219Z,53.47
2019-05-02T12:41:25.283Z,51.53
2019-05-02T12:42:24.629Z,50.54
2019-05-02T12:43:24.096Z,51.48
2019-05-02T12:44:24.088Z,54.88
2019-05-02T12:45:24.013Z,53.83
2019-05-02T12:46:23.972Z,52.28
2019-05-02T12:47:23.927Z,52.28
2019-05-02T12:48:23.895Z,51.61
2019-05-02T12:49:27.707Z,50.81
2019-05-02T12:50:23.804Z,52.55
2019-05-02T12:51:23.761Z,52.25